sensor_id;sensor_type;location;lat;lon;timestamp;temperature;humidity
54168;DHT22;68429;50.958;3.592;2023-03-08T00:00:56;3.70;99.90
54168;DHT22;68429;50.958;3.592;2023-03-08T00:03:22;3.60;99.90
54168;DHT22;68429;50.958;3.592;2023-03-08T00:05:47;3.60;99.90
54168;DHT22;68429;50.958;3.592;2023-03-08T00:08:13;3.50;99.90
54168;DHT22;68429;50.958;3.592;2023-03-08T00:10:40;3.60;99.90
54168;DHT22;68429;50.958;3.592;2023-03-08T00:13:05;3.60;99.90
54168;DHT22;68429;50.958;3.592;2023-03-08T00:15:31;3.60;99.90
54168;DHT22;68429;50.958;3.592;2023-03-08T00:17:57;3.50;99.90
54168;DHT22;68429;50.958;3.592;2023-03-08T00:20:22;3.20;99.90
54168;DHT22;68429;50.958;3.592;2023-03-08T00:22:48;3.00;99.90
54168;DHT22;68429;50.958;3.592;2023-03-08T00:25:14;3.00;99.90
54168;DHT22;68429;50.958;3.592;2023-03-08T00:27:41;3.10;99.90
54168;DHT22;68429;50.958;3.592;2023-03-08T00:30:07;3.20;99.90
54168;DHT22;68429;50.958;3.592;2023-03-08T00:32:33;3.40;99.90
54168;DHT22;68429;50.958;3.592;2023-03-08T00:34:58;3.30;99.90
54168;DHT22;68429;50.958;3.592;2023-03-08T00:37:24;3.30;99.90
54168;DHT22;68429;50.958;3.592;2023-03-08T00:39:51;3.10;99.90
54168;DHT22;68429;50.958;3.592;2023-03-08T00:42:18;3.20;99.90
54168;DHT22;68429;50.958;3.592;2023-03-08T00:44:43;3.30;99.90
54168;DHT22;68429;50.958;3.592;2023-03-08T00:47:09;3.40;99.90
54168;DHT22;68429;50.958;3.592;2023-03-08T00:49:34;3.30;99.90
54168;DHT22;68429;50.958;3.592;2023-03-08T00:52:00;3.20;99.90
54168;DHT22;68429;50.958;3.592;2023-03-08T00:54:28;3.30;99.90
54168;DHT22;68429;50.958;3.592;2023-03-08T00:56:53;3.30;99.90
54168;DHT22;68429;50.958;3.592;2023-03-08T00:59:19;3.30;99.90
54168;DHT22;68429;50.958;3.592;2023-03-08T01:01:45;3.30;99.90
54168;DHT22;68429;50.958;3.592;2023-03-08T01:04:10;3.20;99.90
54168;DHT22;68429;50.958;3.592;2023-03-08T01:06:38;3.10;99.90
54168;DHT22;68429;50.958;3.592;2023-03-08T01:09:04;3.00;99.90
54168;DHT22;68429;50.958;3.592;2023-03-08T01:11:29;2.90;99.90
54168;DHT22;68429;50.958;3.592;2023-03-08T01:13:55;2.90;99.90
54168;DHT22;68429;50.958;3.592;2023-03-08T01:16:26;3.10;99.90
54168;DHT22;68429;50.958;3.592;2023-03-08T01:18:53;3.10;99.90
54168;DHT22;68429;50.958;3.592;2023-03-08T01:21:19;3.10;99.90
54168;DHT22;68429;50.958;3.592;2023-03-08T01:23:46;3.00;99.90
54168;DHT22;68429;50.958;3.592;2023-03-08T01:26:14;3.10;99.90
54168;DHT22;68429;50.958;3.592;2023-03-08T01:28:40;3.20;99.90
54168;DHT22;68429;50.958;3.592;2023-03-08T01:31:17;3.20;99.90
54168;DHT22;68429;50.958;3.592;2023-03-08T01:33:44;3.20;99.90
54168;DHT22;68429;50.958;3.592;2023-03-08T01:36:13;3.10;99.90
54168;DHT22;68429;50.958;3.592;2023-03-08T01:38:40;3.20;99.90
54168;DHT22;68429;50.958;3.592;2023-03-08T01:41:07;3.20;99.90
54168;DHT22;68429;50.958;3.592;2023-03-08T01:43:37;2.90;99.90
54168;DHT22;68429;50.958;3.592;2023-03-08T01:46:05;3.00;99.90
54168;DHT22;68429;50.958;3.592;2023-03-08T01:48:35;3.20;99.90
54168;DHT22;68429;50.958;3.592;2023-03-08T01:51:03;3.20;99.90
54168;DHT22;68429;50.958;3.592;2023-03-08T01:53:31;3.20;99.90
54168;DHT22;68429;50.958;3.592;2023-03-08T01:55:57;3.10;99.90
54168;DHT22;68429;50.958;3.592;2023-03-08T01:58:24;3.20;99.90
54168;DHT22;68429;50.958;3.592;2023-03-08T02:00:50;3.30;99.90
54168;DHT22;68429;50.958;3.592;2023-03-08T02:03:16;3.20;99.90
54168;DHT22;68429;50.958;3.592;2023-03-08T02:05:42;3.20;99.90
54168;DHT22;68429;50.958;3.592;2023-03-08T02:08:08;3.30;99.90
54168;DHT22;68429;50.958;3.592;2023-03-08T02:10:35;3.40;99.90
54168;DHT22;68429;50.958;3.592;2023-03-08T02:13:03;3.30;99.90
54168;DHT22;68429;50.958;3.592;2023-03-08T02:15:30;3.40;99.90
54168;DHT22;68429;50.958;3.592;2023-03-08T02:17:56;3.30;99.90
54168;DHT22;68429;50.958;3.592;2023-03-08T02:20:39;3.40;99.90
54168;DHT22;68429;50.958;3.592;2023-03-08T02:23:15;3.30;99.90
54168;DHT22;68429;50.958;3.592;2023-03-08T02:28:18;3.00;99.90
54168;DHT22;68429;50.958;3.592;2023-03-08T02:30:44;2.90;99.90
54168;DHT22;68429;50.958;3.592;2023-03-08T02:33:09;3.00;99.90
54168;DHT22;68429;50.958;3.592;2023-03-08T02:35:35;3.00;99.90
54168;DHT22;68429;50.958;3.592;2023-03-08T02:38:03;2.70;99.90
54168;DHT22;68429;50.958;3.592;2023-03-08T02:40:28;2.50;99.90
54168;DHT22;68429;50.958;3.592;2023-03-08T02:42:54;2.40;99.90
54168;DHT22;68429;50.958;3.592;2023-03-08T02:45:21;2.50;99.90
54168;DHT22;68429;50.958;3.592;2023-03-08T02:47:47;2.40;99.90
54168;DHT22;68429;50.958;3.592;2023-03-08T02:50:13;2.50;99.90
54168;DHT22;68429;50.958;3.592;2023-03-08T02:52:38;2.50;99.90
54168;DHT22;68429;50.958;3.592;2023-03-08T02:55:05;2.50;99.90
54168;DHT22;68429;50.958;3.592;2023-03-08T02:57:30;2.50;99.90
54168;DHT22;68429;50.958;3.592;2023-03-08T02:59:56;2.20;99.90
54168;DHT22;68429;50.958;3.592;2023-03-08T03:02:22;2.20;99.90
54168;DHT22;68429;50.958;3.592;2023-03-08T03:04:47;2.20;99.90
54168;DHT22;68429;50.958;3.592;2023-03-08T03:07:13;1.90;99.90
54168;DHT22;68429;50.958;3.592;2023-03-08T03:09:38;1.90;99.90
54168;DHT22;68429;50.958;3.592;2023-03-08T03:12:04;1.80;99.90
54168;DHT22;68429;50.958;3.592;2023-03-08T03:14:30;1.70;99.90
54168;DHT22;68429;50.958;3.592;2023-03-08T03:16:57;1.50;99.90
54168;DHT22;68429;50.958;3.592;2023-03-08T03:19:23;1.50;99.90
54168;DHT22;68429;50.958;3.592;2023-03-08T03:21:48;1.80;99.90
54168;DHT22;68429;50.958;3.592;2023-03-08T03:24:14;1.50;99.90
54168;DHT22;68429;50.958;3.592;2023-03-08T03:26:40;1.60;99.90
54168;DHT22;68429;50.958;3.592;2023-03-08T03:29:06;1.60;99.90
54168;DHT22;68429;50.958;3.592;2023-03-08T03:31:31;1.60;99.90
54168;DHT22;68429;50.958;3.592;2023-03-08T03:33:57;1.40;99.90
54168;DHT22;68429;50.958;3.592;2023-03-08T03:36:23;1.30;99.90
54168;DHT22;68429;50.958;3.592;2023-03-08T03:38:49;1.40;99.90
54168;DHT22;68429;50.958;3.592;2023-03-08T03:41:20;1.40;99.90
54168;DHT22;68429;50.958;3.592;2023-03-08T03:43:46;1.20;99.90
54168;DHT22;68429;50.958;3.592;2023-03-08T03:46:15;1.30;99.90
54168;DHT22;68429;50.958;3.592;2023-03-08T03:48:41;1.20;99.90
54168;DHT22;68429;50.958;3.592;2023-03-08T03:51:11;1.40;99.90
54168;DHT22;68429;50.958;3.592;2023-03-08T03:53:37;1.30;99.90
54168;DHT22;68429;50.958;3.592;2023-03-08T03:56:07;1.40;99.90
54168;DHT22;68429;50.958;3.592;2023-03-08T03:58:33;1.40;99.90
54168;DHT22;68429;50.958;3.592;2023-03-08T04:00:59;1.20;99.90
54168;DHT22;68429;50.958;3.592;2023-03-08T04:03:25;1.30;99.90
54168;DHT22;68429;50.958;3.592;2023-03-08T04:05:51;1.30;99.90
54168;DHT22;68429;50.958;3.592;2023-03-08T04:08:17;1.30;99.90
54168;DHT22;68429;50.958;3.592;2023-03-08T04:10:43;1.00;99.90
54168;DHT22;68429;50.958;3.592;2023-03-08T04:13:12;1.20;99.90
54168;DHT22;68429;50.958;3.592;2023-03-08T04:15:38;1.10;99.90
54168;DHT22;68429;50.958;3.592;2023-03-08T04:18:03;0.90;99.90
54168;DHT22;68429;50.958;3.592;2023-03-08T04:20:29;0.90;99.90
54168;DHT22;68429;50.958;3.592;2023-03-08T04:22:55;1.00;99.90
54168;DHT22;68429;50.958;3.592;2023-03-08T04:25:20;0.90;99.90
54168;DHT22;68429;50.958;3.592;2023-03-08T04:27:46;1.00;99.90
54168;DHT22;68429;50.958;3.592;2023-03-08T04:30:12;1.00;99.90
54168;DHT22;68429;50.958;3.592;2023-03-08T04:32:38;1.00;99.90
54168;DHT22;68429;50.958;3.592;2023-03-08T04:35:04;1.00;99.90
54168;DHT22;68429;50.958;3.592;2023-03-08T04:37:30;0.90;99.90
54168;DHT22;68429;50.958;3.592;2023-03-08T04:39:56;1.00;99.90
54168;DHT22;68429;50.958;3.592;2023-03-08T04:42:21;0.80;99.90
54168;DHT22;68429;50.958;3.592;2023-03-08T04:44:47;0.70;99.90
54168;DHT22;68429;50.958;3.592;2023-03-08T04:47:13;0.90;99.90
54168;DHT22;68429;50.958;3.592;2023-03-08T04:49:38;0.80;99.90
54168;DHT22;68429;50.958;3.592;2023-03-08T04:52:04;0.90;99.90
54168;DHT22;68429;50.958;3.592;2023-03-08T04:54:30;0.80;99.90
54168;DHT22;68429;50.958;3.592;2023-03-08T04:56:56;0.80;99.90
54168;DHT22;68429;50.958;3.592;2023-03-08T04:59:21;0.80;99.90
54168;DHT22;68429;50.958;3.592;2023-03-08T05:01:47;0.80;99.90
54168;DHT22;68429;50.958;3.592;2023-03-08T05:04:13;0.80;99.90
54168;DHT22;68429;50.958;3.592;2023-03-08T05:06:39;0.70;99.90
54168;DHT22;68429;50.958;3.592;2023-03-08T05:09:05;0.80;99.90
54168;DHT22;68429;50.958;3.592;2023-03-08T05:11:30;0.70;99.90
54168;DHT22;68429;50.958;3.592;2023-03-08T05:13:58;0.80;99.90
54168;DHT22;68429;50.958;3.592;2023-03-08T05:16:24;0.90;99.90
54168;DHT22;68429;50.958;3.592;2023-03-08T05:18:50;0.90;99.90
54168;DHT22;68429;50.958;3.592;2023-03-08T05:21:18;0.90;99.90
54168;DHT22;68429;50.958;3.592;2023-03-08T05:23:45;0.80;99.90
54168;DHT22;68429;50.958;3.592;2023-03-08T05:26:13;0.90;99.90
54168;DHT22;68429;50.958;3.592;2023-03-08T05:28:39;0.80;99.90
54168;DHT22;68429;50.958;3.592;2023-03-08T05:31:14;0.80;99.90
54168;DHT22;68429;50.958;3.592;2023-03-08T05:33:41;0.90;99.90
54168;DHT22;68429;50.958;3.592;2023-03-08T05:36:08;0.90;99.90
54168;DHT22;68429;50.958;3.592;2023-03-08T05:38:34;0.90;99.90
54168;DHT22;68429;50.958;3.592;2023-03-08T05:41:06;0.90;99.90
54168;DHT22;68429;50.958;3.592;2023-03-08T05:43:33;0.80;99.90
54168;DHT22;68429;50.958;3.592;2023-03-08T05:46:04;0.70;99.90
54168;DHT22;68429;50.958;3.592;2023-03-08T05:48:30;0.70;99.90
54168;DHT22;68429;50.958;3.592;2023-03-08T05:50:57;0.70;99.90
54168;DHT22;68429;50.958;3.592;2023-03-08T05:53:22;0.90;99.90
54168;DHT22;68429;50.958;3.592;2023-03-08T05:55:48;0.80;99.90
54168;DHT22;68429;50.958;3.592;2023-03-08T05:58:14;0.80;99.90
54168;DHT22;68429;50.958;3.592;2023-03-08T06:00:40;0.80;99.90
54168;DHT22;68429;50.958;3.592;2023-03-08T06:03:06;0.70;99.90
54168;DHT22;68429;50.958;3.592;2023-03-08T06:05:32;0.80;99.90
54168;DHT22;68429;50.958;3.592;2023-03-08T06:07:58;0.80;99.90
54168;DHT22;68429;50.958;3.592;2023-03-08T06:10:24;1.00;99.90
54168;DHT22;68429;50.958;3.592;2023-03-08T06:12:50;0.90;99.90
54168;DHT22;68429;50.958;3.592;2023-03-08T06:15:15;0.80;99.90
54168;DHT22;68429;50.958;3.592;2023-03-08T06:17:41;0.70;99.90
54168;DHT22;68429;50.958;3.592;2023-03-08T06:20:08;0.80;99.90
54168;DHT22;68429;50.958;3.592;2023-03-08T06:22:34;0.80;99.90
54168;DHT22;68429;50.958;3.592;2023-03-08T06:25:00;0.80;99.90
54168;DHT22;68429;50.958;3.592;2023-03-08T06:27:26;0.70;99.90
54168;DHT22;68429;50.958;3.592;2023-03-08T06:29:52;0.80;99.90
54168;DHT22;68429;50.958;3.592;2023-03-08T06:32:18;0.70;99.90
54168;DHT22;68429;50.958;3.592;2023-03-08T06:34:44;0.70;99.90
54168;DHT22;68429;50.958;3.592;2023-03-08T06:37:11;0.70;99.90
54168;DHT22;68429;50.958;3.592;2023-03-08T06:39:37;0.80;99.90
54168;DHT22;68429;50.958;3.592;2023-03-08T06:42:02;0.60;99.90
54168;DHT22;68429;50.958;3.592;2023-03-08T06:44:29;0.70;99.90
54168;DHT22;68429;50.958;3.592;2023-03-08T06:46:55;0.70;99.90
54168;DHT22;68429;50.958;3.592;2023-03-08T06:49:21;0.60;99.90
54168;DHT22;68429;50.958;3.592;2023-03-08T06:51:47;0.70;99.90
54168;DHT22;68429;50.958;3.592;2023-03-08T06:54:13;0.80;99.90
54168;DHT22;68429;50.958;3.592;2023-03-08T06:56:43;0.60;99.90
54168;DHT22;68429;50.958;3.592;2023-03-08T06:59:10;0.60;99.90
54168;DHT22;68429;50.958;3.592;2023-03-08T07:01:36;0.80;99.90
54168;DHT22;68429;50.958;3.592;2023-03-08T07:04:02;0.70;99.90
54168;DHT22;68429;50.958;3.592;2023-03-08T07:06:27;0.80;99.90
54168;DHT22;68429;50.958;3.592;2023-03-08T07:08:53;0.80;99.90
54168;DHT22;68429;50.958;3.592;2023-03-08T07:11:19;0.70;99.90
54168;DHT22;68429;50.958;3.592;2023-03-08T07:13:44;0.60;99.90
54168;DHT22;68429;50.958;3.592;2023-03-08T07:16:12;0.70;99.90
54168;DHT22;68429;50.958;3.592;2023-03-08T07:18:38;0.90;99.90
54168;DHT22;68429;50.958;3.592;2023-03-08T07:21:04;0.70;99.90
54168;DHT22;68429;50.958;3.592;2023-03-08T07:23:30;0.80;99.90
54168;DHT22;68429;50.958;3.592;2023-03-08T07:25:56;0.80;99.90
54168;DHT22;68429;50.958;3.592;2023-03-08T07:28:22;0.80;99.90
54168;DHT22;68429;50.958;3.592;2023-03-08T07:30:49;0.80;99.90
54168;DHT22;68429;50.958;3.592;2023-03-08T07:33:16;0.80;99.90
54168;DHT22;68429;50.958;3.592;2023-03-08T07:35:42;0.90;99.90
54168;DHT22;68429;50.958;3.592;2023-03-08T07:38:07;1.00;99.90
54168;DHT22;68429;50.958;3.592;2023-03-08T07:40:33;0.80;99.90
54168;DHT22;68429;50.958;3.592;2023-03-08T07:42:59;0.80;99.90
54168;DHT22;68429;50.958;3.592;2023-03-08T07:45:25;0.80;99.90
54168;DHT22;68429;50.958;3.592;2023-03-08T07:47:51;0.70;99.90
54168;DHT22;68429;50.958;3.592;2023-03-08T07:50:18;0.80;99.90
54168;DHT22;68429;50.958;3.592;2023-03-08T07:52:44;0.80;99.90
54168;DHT22;68429;50.958;3.592;2023-03-08T07:55:09;0.80;99.90
54168;DHT22;68429;50.958;3.592;2023-03-08T07:57:36;0.80;99.90
54168;DHT22;68429;50.958;3.592;2023-03-08T08:00:03;0.90;99.90
54168;DHT22;68429;50.958;3.592;2023-03-08T08:02:33;0.80;99.90
54168;DHT22;68429;50.958;3.592;2023-03-08T08:04:59;0.80;99.90
54168;DHT22;68429;50.958;3.592;2023-03-08T08:07:25;0.70;99.90
54168;DHT22;68429;50.958;3.592;2023-03-08T08:09:50;0.70;99.90
54168;DHT22;68429;50.958;3.592;2023-03-08T08:12:16;0.70;99.90
54168;DHT22;68429;50.958;3.592;2023-03-08T08:14:42;0.80;99.90
54168;DHT22;68429;50.958;3.592;2023-03-08T08:17:08;0.80;99.90
54168;DHT22;68429;50.958;3.592;2023-03-08T08:19:33;0.80;99.90
54168;DHT22;68429;50.958;3.592;2023-03-08T08:21:59;0.80;99.90
54168;DHT22;68429;50.958;3.592;2023-03-08T08:24:25;0.80;99.90
54168;DHT22;68429;50.958;3.592;2023-03-08T08:26:51;0.80;99.90
54168;DHT22;68429;50.958;3.592;2023-03-08T08:29:17;0.90;99.90
54168;DHT22;68429;50.958;3.592;2023-03-08T08:31:43;0.80;99.90
54168;DHT22;68429;50.958;3.592;2023-03-08T08:34:09;0.90;99.90
54168;DHT22;68429;50.958;3.592;2023-03-08T08:36:35;0.80;99.90
54168;DHT22;68429;50.958;3.592;2023-03-08T08:39:00;0.90;99.90
54168;DHT22;68429;50.958;3.592;2023-03-08T08:41:26;0.90;99.90
54168;DHT22;68429;50.958;3.592;2023-03-08T08:43:54;1.00;99.90
54168;DHT22;68429;50.958;3.592;2023-03-08T08:46:23;0.90;99.90
54168;DHT22;68429;50.958;3.592;2023-03-08T08:48:49;0.90;99.90
54168;DHT22;68429;50.958;3.592;2023-03-08T08:51:15;0.90;99.90
54168;DHT22;68429;50.958;3.592;2023-03-08T08:53:41;1.00;99.90
54168;DHT22;68429;50.958;3.592;2023-03-08T08:56:12;1.10;99.90
54168;DHT22;68429;50.958;3.592;2023-03-08T08:58:38;1.10;99.90
54168;DHT22;68429;50.958;3.592;2023-03-08T09:01:11;1.00;99.90
54168;DHT22;68429;50.958;3.592;2023-03-08T09:03:36;1.00;99.90
54168;DHT22;68429;50.958;3.592;2023-03-08T09:06:02;1.10;99.90
54168;DHT22;68429;50.958;3.592;2023-03-08T09:08:28;1.10;99.90
54168;DHT22;68429;50.958;3.592;2023-03-08T09:10:53;1.20;99.90
54168;DHT22;68429;50.958;3.592;2023-03-08T09:13:19;1.20;99.90
54168;DHT22;68429;50.958;3.592;2023-03-08T09:15:45;1.10;99.90
54168;DHT22;68429;50.958;3.592;2023-03-08T09:18:10;1.10;99.90
54168;DHT22;68429;50.958;3.592;2023-03-08T09:20:36;1.20;99.90
54168;DHT22;68429;50.958;3.592;2023-03-08T09:23:01;1.20;99.90
54168;DHT22;68429;50.958;3.592;2023-03-08T09:25:27;1.40;99.90
54168;DHT22;68429;50.958;3.592;2023-03-08T09:27:53;1.30;99.90
54168;DHT22;68429;50.958;3.592;2023-03-08T09:30:18;1.50;99.90
54168;DHT22;68429;50.958;3.592;2023-03-08T09:32:44;1.60;99.90
54168;DHT22;68429;50.958;3.592;2023-03-08T09:35:10;1.50;99.90
54168;DHT22;68429;50.958;3.592;2023-03-08T09:37:36;1.60;99.90
54168;DHT22;68429;50.958;3.592;2023-03-08T09:40:02;1.60;99.90
54168;DHT22;68429;50.958;3.592;2023-03-08T09:42:34;1.50;99.90
54168;DHT22;68429;50.958;3.592;2023-03-08T09:45:07;1.60;99.90
54168;DHT22;68429;50.958;3.592;2023-03-08T09:50:48;1.80;99.90
54168;DHT22;68429;50.958;3.592;2023-03-08T09:53:22;1.80;99.90
54168;DHT22;68429;50.958;3.592;2023-03-08T10:04:20;2.00;99.90
54168;DHT22;68429;50.958;3.592;2023-03-08T10:10:16;1.90;99.90
54168;DHT22;68429;50.958;3.592;2023-03-08T10:15:39;2.00;99.90
54168;DHT22;68429;50.958;3.592;2023-03-08T10:18:30;2.00;99.90
54168;DHT22;68429;50.958;3.592;2023-03-08T10:21:00;2.20;99.90
54168;DHT22;68429;50.958;3.592;2023-03-08T10:23:29;2.10;99.90
54168;DHT22;68429;50.958;3.592;2023-03-08T10:25:56;2.20;99.90
54168;DHT22;68429;50.958;3.592;2023-03-08T10:28:23;2.40;99.90
54168;DHT22;68429;50.958;3.592;2023-03-08T10:30:59;2.40;99.90
54168;DHT22;68429;50.958;3.592;2023-03-08T10:33:31;2.20;99.90
54168;DHT22;68429;50.958;3.592;2023-03-08T10:36:08;2.00;99.90
54168;DHT22;68429;50.958;3.592;2023-03-08T10:38:37;2.20;99.90
54168;DHT22;68429;50.958;3.592;2023-03-08T10:43:35;2.20;99.90
54168;DHT22;68429;50.958;3.592;2023-03-08T10:48:28;2.30;99.90
54168;DHT22;68429;50.958;3.592;2023-03-08T10:51:03;2.20;99.90
54168;DHT22;68429;50.958;3.592;2023-03-08T10:53:30;2.30;99.90
54168;DHT22;68429;50.958;3.592;2023-03-08T10:55:58;2.30;99.90
54168;DHT22;68429;50.958;3.592;2023-03-08T10:58:35;2.10;99.90
54168;DHT22;68429;50.958;3.592;2023-03-08T11:01:21;2.20;99.90
54168;DHT22;68429;50.958;3.592;2023-03-08T11:04:15;2.20;99.90
54168;DHT22;68429;50.958;3.592;2023-03-08T11:06:41;2.50;99.90
54168;DHT22;68429;50.958;3.592;2023-03-08T11:09:28;2.40;99.90
54168;DHT22;68429;50.958;3.592;2023-03-08T11:11:56;2.40;99.90
54168;DHT22;68429;50.958;3.592;2023-03-08T11:14:24;2.30;99.90
54168;DHT22;68429;50.958;3.592;2023-03-08T11:17:17;2.30;99.90
54168;DHT22;68429;50.958;3.592;2023-03-08T11:22:45;2.20;99.90
54168;DHT22;68429;50.958;3.592;2023-03-08T11:28:28;2.30;99.90
54168;DHT22;68429;50.958;3.592;2023-03-08T11:31:07;2.30;99.90
54168;DHT22;68429;50.958;3.592;2023-03-08T11:36:20;2.40;99.90
54168;DHT22;68429;50.958;3.592;2023-03-08T11:42:06;2.70;99.90
54168;DHT22;68429;50.958;3.592;2023-03-08T11:47:32;2.90;99.90
54168;DHT22;68429;50.958;3.592;2023-03-08T11:57:58;2.70;99.90
54168;DHT22;68429;50.958;3.592;2023-03-08T12:00:40;2.70;99.90
54168;DHT22;68429;50.958;3.592;2023-03-08T12:03:35;2.70;99.90
54168;DHT22;68429;50.958;3.592;2023-03-08T12:06:22;2.60;99.90
54168;DHT22;68429;50.958;3.592;2023-03-08T12:08:57;2.70;99.90
54168;DHT22;68429;50.958;3.592;2023-03-08T12:11:28;2.80;99.90
54168;DHT22;68429;50.958;3.592;2023-03-08T12:14:09;2.70;99.90
54168;DHT22;68429;50.958;3.592;2023-03-08T12:17:03;2.60;99.90
54168;DHT22;68429;50.958;3.592;2023-03-08T12:19:41;2.60;99.90
54168;DHT22;68429;50.958;3.592;2023-03-08T12:24:53;2.80;99.90
54168;DHT22;68429;50.958;3.592;2023-03-08T12:33:14;2.70;99.90
54168;DHT22;68429;50.958;3.592;2023-03-08T12:35:53;2.80;99.90
54168;DHT22;68429;50.958;3.592;2023-03-08T12:40:48;2.90;99.90
54168;DHT22;68429;50.958;3.592;2023-03-08T12:48:33;3.30;99.90
54168;DHT22;68429;50.958;3.592;2023-03-08T12:51:03;3.20;99.90
54168;DHT22;68429;50.958;3.592;2023-03-08T12:58:46;3.00;99.90
54168;DHT22;68429;50.958;3.592;2023-03-08T13:01:29;2.90;99.90
54168;DHT22;68429;50.958;3.592;2023-03-08T13:03:56;3.00;99.90
54168;DHT22;68429;50.958;3.592;2023-03-08T13:08:58;2.90;99.90
54168;DHT22;68429;50.958;3.592;2023-03-08T13:11:37;2.90;99.90
54168;DHT22;68429;50.958;3.592;2023-03-08T13:17:32;2.70;99.90
54168;DHT22;68429;50.958;3.592;2023-03-08T13:20:47;3.00;99.90
54168;DHT22;68429;50.958;3.592;2023-03-08T13:28:33;2.90;99.90
54168;DHT22;68429;50.958;3.592;2023-03-08T13:36:29;3.20;99.90
54168;DHT22;68429;50.958;3.592;2023-03-08T13:44:35;2.90;99.90
54168;DHT22;68429;50.958;3.592;2023-03-08T13:47:24;2.90;99.90
54168;DHT22;68429;50.958;3.592;2023-03-08T13:49:49;2.90;99.90
54168;DHT22;68429;50.958;3.592;2023-03-08T13:52:21;3.00;99.90
54168;DHT22;68429;50.958;3.592;2023-03-08T13:54:50;2.90;99.90
54168;DHT22;68429;50.958;3.592;2023-03-08T13:57:28;3.10;99.90
54168;DHT22;68429;50.958;3.592;2023-03-08T13:59:57;3.30;99.90
54168;DHT22;68429;50.958;3.592;2023-03-08T14:02:28;3.30;99.90
54168;DHT22;68429;50.958;3.592;2023-03-08T14:04:56;3.10;99.90
54168;DHT22;68429;50.958;3.592;2023-03-08T14:07:23;3.20;99.90
54168;DHT22;68429;50.958;3.592;2023-03-08T14:09:49;3.50;99.90
54168;DHT22;68429;50.958;3.592;2023-03-08T14:12:18;3.50;99.90
54168;DHT22;68429;50.958;3.592;2023-03-08T14:14:50;3.50;99.90
54168;DHT22;68429;50.958;3.592;2023-03-08T14:17:22;3.40;99.90
54168;DHT22;68429;50.958;3.592;2023-03-08T14:19:59;3.40;99.90
54168;DHT22;68429;50.958;3.592;2023-03-08T14:22:28;3.30;99.90
54168;DHT22;68429;50.958;3.592;2023-03-08T14:24:59;3.20;99.90
54168;DHT22;68429;50.958;3.592;2023-03-08T14:27:41;2.90;99.90
54168;DHT22;68429;50.958;3.592;2023-03-08T14:30:18;3.10;99.90
54168;DHT22;68429;50.958;3.592;2023-03-08T14:35:36;3.20;99.90
54168;DHT22;68429;50.958;3.592;2023-03-08T14:38:32;3.10;99.90
54168;DHT22;68429;50.958;3.592;2023-03-08T14:41:01;3.00;99.90
54168;DHT22;68429;50.958;3.592;2023-03-08T14:43:28;2.80;99.90
54168;DHT22;68429;50.958;3.592;2023-03-08T14:46:01;2.80;99.90
54168;DHT22;68429;50.958;3.592;2023-03-08T14:48:35;2.80;99.90
54168;DHT22;68429;50.958;3.592;2023-03-08T14:51:45;2.60;99.90
54168;DHT22;68429;50.958;3.592;2023-03-08T14:54:00;2.60;99.90
54168;DHT22;68429;50.958;3.592;2023-03-08T14:56:28;2.60;99.90
54168;DHT22;68429;50.958;3.592;2023-03-08T14:58:58;2.70;99.90
54168;DHT22;68429;50.958;3.592;2023-03-08T15:01:29;2.70;99.90
54168;DHT22;68429;50.958;3.592;2023-03-08T15:03:56;2.80;99.90
54168;DHT22;68429;50.958;3.592;2023-03-08T15:06:27;2.70;99.90
54168;DHT22;68429;50.958;3.592;2023-03-08T15:08:53;2.80;99.90
54168;DHT22;68429;50.958;3.592;2023-03-08T15:11:19;2.90;99.90
54168;DHT22;68429;50.958;3.592;2023-03-08T15:13:45;2.80;99.90
54168;DHT22;68429;50.958;3.592;2023-03-08T15:16:11;2.80;99.90
54168;DHT22;68429;50.958;3.592;2023-03-08T15:18:37;2.90;99.90
54168;DHT22;68429;50.958;3.592;2023-03-08T15:21:03;2.80;99.90
54168;DHT22;68429;50.958;3.592;2023-03-08T15:23:32;2.90;99.90
54168;DHT22;68429;50.958;3.592;2023-03-08T15:25:59;3.00;99.90
54168;DHT22;68429;50.958;3.592;2023-03-08T15:28:25;2.80;99.90
54168;DHT22;68429;50.958;3.592;2023-03-08T15:30:52;2.70;99.90
54168;DHT22;68429;50.958;3.592;2023-03-08T15:33:19;2.90;99.90
54168;DHT22;68429;50.958;3.592;2023-03-08T15:35:45;3.00;99.90
54168;DHT22;68429;50.958;3.592;2023-03-08T15:38:13;3.00;99.90
54168;DHT22;68429;50.958;3.592;2023-03-08T15:40:39;2.80;99.90
54168;DHT22;68429;50.958;3.592;2023-03-08T15:43:05;2.60;99.90
54168;DHT22;68429;50.958;3.592;2023-03-08T15:45:31;2.60;99.90
54168;DHT22;68429;50.958;3.592;2023-03-08T15:48:05;2.70;99.90
54168;DHT22;68429;50.958;3.592;2023-03-08T15:50:31;2.90;99.90
54168;DHT22;68429;50.958;3.592;2023-03-08T15:52:59;3.00;99.90
54168;DHT22;68429;50.958;3.592;2023-03-08T15:55:27;2.90;99.90
54168;DHT22;68429;50.958;3.592;2023-03-08T15:57:53;3.10;99.90
54168;DHT22;68429;50.958;3.592;2023-03-08T16:00:21;2.90;99.90
54168;DHT22;68429;50.958;3.592;2023-03-08T16:02:47;2.80;99.90
54168;DHT22;68429;50.958;3.592;2023-03-08T16:05:14;2.70;99.90
54168;DHT22;68429;50.958;3.592;2023-03-08T16:07:40;2.80;99.90
54168;DHT22;68429;50.958;3.592;2023-03-08T16:10:10;2.90;99.90
54168;DHT22;68429;50.958;3.592;2023-03-08T16:12:36;3.00;99.90
54168;DHT22;68429;50.958;3.592;2023-03-08T16:15:02;2.90;99.90
54168;DHT22;68429;50.958;3.592;2023-03-08T16:17:29;2.80;99.90
54168;DHT22;68429;50.958;3.592;2023-03-08T16:19:55;2.80;99.90
54168;DHT22;68429;50.958;3.592;2023-03-08T16:22:21;2.70;99.90
54168;DHT22;68429;50.958;3.592;2023-03-08T16:24:47;2.70;99.90
54168;DHT22;68429;50.958;3.592;2023-03-08T16:27:12;2.90;99.90
54168;DHT22;68429;50.958;3.592;2023-03-08T16:29:38;2.90;99.90
54168;DHT22;68429;50.958;3.592;2023-03-08T16:32:04;2.80;99.90
54168;DHT22;68429;50.958;3.592;2023-03-08T16:34:30;2.80;99.90
54168;DHT22;68429;50.958;3.592;2023-03-08T16:36:56;2.80;99.90
54168;DHT22;68429;50.958;3.592;2023-03-08T16:39:23;2.80;99.90
54168;DHT22;68429;50.958;3.592;2023-03-08T16:41:49;2.70;99.90
54168;DHT22;68429;50.958;3.592;2023-03-08T16:44:21;2.70;99.90
54168;DHT22;68429;50.958;3.592;2023-03-08T16:46:47;2.70;99.90
54168;DHT22;68429;50.958;3.592;2023-03-08T16:49:14;2.80;99.90
54168;DHT22;68429;50.958;3.592;2023-03-08T16:51:40;2.70;99.90
54168;DHT22;68429;50.958;3.592;2023-03-08T16:54:08;2.80;99.90
54168;DHT22;68429;50.958;3.592;2023-03-08T16:56:33;2.70;99.90
54168;DHT22;68429;50.958;3.592;2023-03-08T16:59:00;2.70;99.90
54168;DHT22;68429;50.958;3.592;2023-03-08T17:01:27;2.80;99.90
54168;DHT22;68429;50.958;3.592;2023-03-08T17:03:54;2.80;99.90
54168;DHT22;68429;50.958;3.592;2023-03-08T17:06:22;2.70;99.90
54168;DHT22;68429;50.958;3.592;2023-03-08T17:08:48;2.60;99.90
54168;DHT22;68429;50.958;3.592;2023-03-08T17:13:40;2.70;99.90
54168;DHT22;68429;50.958;3.592;2023-03-08T17:16:08;2.80;99.90
54168;DHT22;68429;50.958;3.592;2023-03-08T17:18:34;2.70;99.90
54168;DHT22;68429;50.958;3.592;2023-03-08T17:21:00;2.80;99.90
54168;DHT22;68429;50.958;3.592;2023-03-08T17:23:25;2.90;99.90
54168;DHT22;68429;50.958;3.592;2023-03-08T17:25:53;2.90;99.90
54168;DHT22;68429;50.958;3.592;2023-03-08T17:28:18;2.90;99.90